Hoffman Estates, Illinois
Current Conditions -  °F | °C
As of 3:52 PM on Friday 24 Oct 2014 (Local Time) from KDPA Reporting Station
Clear Clear  
Wind Chill: 68°   Ceiling: Unl
Heat Index: 68°   Visibility: 10mi
Dew Point: 45°   Wind: 9mph
Humidity: 43%   Direction: 240°WSW
Pressure: 29.97"   Gusts: NA
Location:  42.06°N, 88.12°W
Report Text: KDPA 242052Z 24008KT 10SM CLR 20/07 A2997 RMK AO2 SLP147 T02000072 56017
Loading
Personal Weather Stations






























Interactive Weather Map
Tropical Storm Tracking
New forecast layout! Learn more

10-Day Weather Forecast

Advertisements
Track Severe Weather on mobile